createdAt,value
2018-01-13T00:01:37.462Z,15.13
2018-01-13T00:04:05.059Z,13.38
2018-01-13T00:06:33.403Z,14.10
2018-01-13T00:09:01.029Z,13.40
2018-01-13T00:11:28.652Z,14.40
2018-01-13T00:13:56.952Z,14.40
2018-01-13T00:16:24.531Z,13.90
2018-01-13T00:18:52.082Z,13.68
2018-01-13T00:21:19.664Z,14.40
2018-01-13T00:23:47.208Z,15.30
2018-01-13T00:26:14.793Z,13.93
2018-01-13T00:28:42.339Z,15.45
2018-01-13T00:31:09.926Z,16.52
2018-01-13T00:33:37.474Z,16.83
2018-01-13T00:36:05.061Z,17.05
2018-01-13T00:38:33.372Z,17.15
2018-01-13T00:41:01.044Z,18.90
2018-01-13T00:43:28.591Z,17.60
2018-01-13T00:45:56.173Z,16.95
2018-01-13T00:48:23.712Z,19.35
2018-01-13T00:50:51.299Z,18.17
2018-01-13T00:53:18.852Z,16.77
2018-01-13T00:55:46.432Z,16.30
2018-01-13T00:58:13.978Z,16.62
2018-01-13T01:00:41.605Z,18.02
2018-01-13T01:03:09.146Z,16.70
2018-01-13T01:05:37.539Z,16.77
2018-01-13T01:08:05.828Z,21.08
2018-01-13T01:10:33.414Z,18.00
2018-01-13T01:13:01.113Z,18.27
2018-01-13T01:15:28.655Z,18.12
2018-01-13T01:17:56.195Z,18.33
2018-01-13T01:20:23.777Z,16.80
2018-01-13T01:22:51.318Z,18.83
2018-01-13T01:25:18.909Z,17.87
2018-01-13T01:27:47.214Z,18.12
2018-01-13T01:30:14.791Z,18.92
2018-01-13T01:32:42.325Z,18.15
2018-01-13T01:35:10.673Z,18.02
2018-01-13T01:37:38.214Z,16.05
2018-01-13T01:40:05.791Z,18.08
2018-01-13T01:42:33.331Z,18.85
2018-01-13T01:45:00.975Z,17.52
2018-01-13T01:47:28.519Z,20.10
2018-01-13T01:49:56.099Z,18.20
2018-01-13T01:52:23.639Z,17.40
2018-01-13T01:54:51.218Z,19.50
2018-01-13T01:57:18.754Z,19.00
2018-01-13T01:59:46.340Z,20.58
2018-01-13T02:02:13.889Z,18.92
2018-01-13T02:04:41.467Z,19.15
2018-01-13T02:07:09.007Z,20.77
2018-01-13T02:09:36.592Z,18.98
2018-01-13T02:12:04.137Z,17.62
2018-01-13T02:14:31.713Z,19.35
2018-01-13T02:16:59.250Z,18.15
2018-01-13T02:19:26.837Z,20.10
2018-01-13T02:21:54.374Z,20.05
2018-01-13T02:24:22.016Z,19.67
2018-01-13T02:26:49.554Z,22.45
2018-01-13T02:29:17.907Z,20.92
2018-01-13T02:31:45.448Z,19.45
2018-01-13T02:34:13.031Z,19.83
2018-01-13T02:36:42.190Z,22.52
2018-01-13T02:39:09.774Z,20.05
2018-01-13T02:41:38.837Z,20.67
2018-01-13T02:44:06.420Z,21.90
2018-01-13T02:46:33.956Z,21.37
2018-01-13T02:49:01.492Z,18.50
2018-01-13T02:51:29.071Z,22.33
2018-01-13T02:53:56.697Z,22.85
2018-01-13T02:56:25.043Z,21.87
2018-01-13T02:58:52.584Z,22.85
2018-01-13T03:01:20.170Z,23.27
2018-01-13T03:03:47.803Z,21.62
2018-01-13T03:06:15.387Z,23.15
2018-01-13T03:08:42.933Z,23.62
2018-01-13T03:11:10.515Z,20.37
2018-01-13T03:13:38.054Z,22.48
2018-01-13T03:16:05.639Z,23.50
2018-01-13T03:18:33.187Z,23.25
2018-01-13T03:21:00.765Z,23.00
2018-01-13T03:23:29.068Z,23.42
2018-01-13T03:25:56.651Z,23.60
2018-01-13T03:28:24.201Z,23.62
2018-01-13T03:30:51.784Z,24.02
2018-01-13T03:33:19.363Z,23.30
2018-01-13T03:35:47.696Z,23.60
2018-01-13T03:38:15.276Z,22.35
2018-01-13T03:40:42.817Z,22.05
2018-01-13T03:43:10.421Z,23.02
2018-01-13T03:45:37.964Z,21.95
2018-01-13T03:48:05.547Z,22.95
2018-01-13T03:50:33.894Z,22.77
2018-01-13T03:53:01.432Z,23.55
2018-01-13T03:55:29.017Z,24.52
2018-01-13T03:57:56.554Z,23.60
2018-01-13T04:00:24.135Z,24.52
2018-01-13T04:02:51.712Z,23.45
2018-01-13T04:05:19.255Z,24.90
2018-01-13T04:07:46.843Z,23.05
2018-01-13T04:10:14.388Z,24.50
2018-01-13T04:12:41.962Z,23.85
2018-01-13T04:15:09.499Z,22.90
2018-01-13T04:17:37.082Z,23.77
2018-01-13T04:20:04.621Z,23.15
2018-01-13T04:22:32.208Z,23.17
2018-01-13T04:24:59.748Z,21.62
2018-01-13T04:27:27.337Z,22.42
2018-01-13T04:29:54.882Z,24.40
2018-01-13T04:32:22.460Z,22.15
2018-01-13T04:34:50.763Z,23.77
2018-01-13T04:37:18.345Z,23.25
2018-01-13T04:39:45.879Z,23.48
2018-01-13T04:42:14.224Z,22.25
2018-01-13T04:44:41.754Z,24.33
2018-01-13T04:47:09.335Z,22.48
2018-01-13T04:49:36.877Z,23.52
2018-01-13T04:52:04.463Z,22.30
2018-01-13T04:54:32.003Z,24.85
2018-01-13T04:56:59.585Z,23.02
2018-01-13T04:59:27.161Z,23.65
2018-01-13T05:01:54.767Z,24.35
2018-01-13T05:04:22.306Z,23.12
2018-01-13T05:06:49.889Z,22.62
2018-01-13T05:09:17.426Z,25.50
2018-01-13T05:11:45.002Z,24.40
2018-01-13T05:14:12.539Z,23.92
2018-01-13T05:16:40.127Z,24.75
2018-01-13T05:19:07.676Z,25.75
2018-01-13T05:21:35.256Z,24.23
2018-01-13T05:24:02.799Z,28.40
2018-01-13T05:26:30.376Z,23.83
2018-01-13T05:28:57.908Z,24.95
2018-01-13T05:31:25.488Z,19.98
2018-01-13T05:33:53.034Z,23.65
2018-01-13T05:36:20.619Z,24.48
2018-01-13T05:38:48.261Z,22.77
2018-01-13T05:41:15.889Z,24.58
2018-01-13T05:43:44.181Z,21.85
2018-01-13T05:46:11.760Z,24.70
2018-01-13T05:48:39.299Z,23.40
2018-01-13T05:51:06.843Z,22.35
2018-01-13T05:53:35.197Z,22.85
2018-01-13T05:56:02.740Z,21.45
2018-01-13T05:58:30.332Z,25.00
2018-01-13T06:00:58.639Z,23.73
2018-01-13T06:03:26.261Z,25.48
2018-01-13T06:05:53.807Z,22.73
2018-01-13T06:08:21.386Z,23.10
2018-01-13T06:10:49.735Z,25.23
2018-01-13T06:13:17.276Z,23.65
2018-01-13T06:15:44.849Z,22.80
2018-01-13T06:18:12.428Z,23.98
2018-01-13T06:20:39.976Z,21.50
2018-01-13T06:23:07.548Z,21.58
2018-01-13T06:25:35.173Z,22.87
2018-01-13T06:28:02.758Z,20.98
2018-01-13T06:30:30.299Z,21.85
2018-01-13T06:32:57.883Z,22.00
2018-01-13T06:35:25.419Z,22.37
2018-01-13T06:37:53.004Z,22.10
2018-01-13T06:40:20.542Z,23.60
2018-01-13T06:42:48.124Z,22.17
2018-01-13T06:45:15.668Z,22.98
2018-01-13T06:47:43.252Z,18.42
2018-01-13T06:50:10.801Z,21.67
2018-01-13T06:52:38.372Z,21.35
2018-01-13T06:55:05.908Z,21.67
2018-01-13T06:57:33.484Z,22.45
2018-01-13T07:00:01.025Z,20.77
2018-01-13T07:02:28.600Z,21.52
2018-01-13T07:04:56.157Z,21.27
2018-01-13T07:07:23.743Z,21.80
2018-01-13T07:09:52.051Z,20.88
2018-01-13T07:12:19.627Z,20.25
2018-01-13T07:14:47.159Z,23.73
2018-01-13T07:19:49.356Z,23.33
2018-01-13T07:22:16.935Z,21.80
2018-01-13T07:24:44.477Z,21.52
2018-01-13T07:27:12.063Z,20.20
2018-01-13T07:29:39.604Z,20.62
2018-01-13T07:32:07.185Z,22.05
2018-01-13T07:34:34.717Z,20.52
2018-01-13T07:37:02.310Z,20.70
2018-01-13T07:39:30.617Z,20.58
2018-01-13T07:41:58.196Z,21.87
2018-01-13T07:44:25.739Z,21.40
2018-01-13T07:46:53.312Z,18.42
2018-01-13T07:49:21.615Z,20.77
2018-01-13T07:51:49.193Z,19.40
2018-01-13T07:54:16.726Z,20.42
2018-01-13T07:56:44.304Z,19.27
2018-01-13T07:59:11.840Z,20.77
2018-01-13T08:01:39.423Z,20.70
2018-01-13T08:04:06.959Z,20.73
2018-01-13T08:06:34.540Z,22.70
2018-01-13T08:09:02.087Z,19.08
2018-01-13T08:11:29.670Z,17.75
2018-01-13T08:13:57.204Z,17.92
2018-01-13T08:16:24.795Z,16.77
2018-01-13T08:18:52.331Z,18.37
2018-01-13T08:21:19.905Z,18.62
2018-01-13T08:23:47.451Z,17.42
2018-01-13T08:26:15.044Z,15.65
2018-01-13T08:28:42.581Z,18.05
2018-01-13T08:31:10.160Z,15.23
2018-01-13T08:33:37.702Z,17.50
2018-01-13T08:36:05.278Z,16.37
2018-01-13T08:38:32.820Z,18.83
2018-01-13T08:41:00.399Z,16.60
2018-01-13T08:43:27.941Z,17.33
2018-01-13T08:45:55.527Z,17.00
2018-01-13T08:48:23.064Z,17.35
2018-01-13T08:50:50.643Z,19.05
2018-01-13T08:53:18.175Z,17.90
2018-01-13T08:55:45.751Z,18.42
2018-01-13T08:58:13.289Z,19.30
2018-01-13T09:00:40.862Z,19.35
2018-01-13T09:03:08.401Z,17.98
2018-01-13T09:05:35.980Z,17.92
2018-01-13T09:08:03.518Z,20.52
2018-01-13T09:10:31.094Z,20.20
2018-01-13T09:12:58.633Z,21.05
2018-01-13T09:15:26.217Z,21.08
2018-01-13T09:17:53.751Z,21.70
2018-01-13T09:20:21.331Z,20.85
2018-01-13T09:22:48.860Z,20.33
2018-01-13T09:25:17.207Z,19.85
2018-01-13T09:27:44.742Z,21.65
2018-01-13T09:30:12.323Z,19.37
2018-01-13T09:32:39.860Z,19.00
2018-01-13T09:35:07.450Z,19.23
2018-01-13T09:37:34.981Z,21.87
2018-01-13T09:40:02.556Z,20.50
2018-01-13T09:42:30.091Z,19.75
2018-01-13T09:44:57.674Z,21.80
2018-01-13T09:47:25.219Z,17.52
2018-01-13T09:49:52.802Z,19.85
2018-01-13T09:52:20.344Z,22.30
2018-01-13T09:54:47.918Z,18.92
2018-01-13T09:57:15.460Z,20.08
2018-01-13T09:59:43.032Z,20.40
2018-01-13T10:02:10.571Z,20.62
2018-01-13T10:04:39.109Z,16.77
2018-01-13T10:07:07.411Z,20.00
2018-01-13T10:09:34.990Z,19.90
2018-01-13T10:12:02.528Z,17.15
2018-01-13T10:14:30.103Z,17.27
2018-01-13T10:16:57.637Z,17.40
2018-01-13T10:19:25.224Z,17.20
2018-01-13T10:21:52.762Z,18.60
2018-01-13T10:24:20.319Z,17.52
2018-01-13T10:26:47.897Z,18.58
2018-01-13T10:29:15.544Z,19.08
2018-01-13T10:31:43.225Z,16.77
2018-01-13T10:34:10.772Z,19.70
2018-01-13T10:36:38.352Z,17.27
2018-01-13T10:39:05.890Z,20.33
2018-01-13T10:41:33.469Z,18.25
2018-01-13T10:44:00.998Z,16.25
2018-01-13T10:46:28.584Z,16.45
2018-01-13T10:48:56.118Z,17.48
2018-01-13T10:51:23.695Z,17.35
2018-01-13T10:53:51.295Z,16.70
2018-01-13T10:56:18.823Z,16.08
2018-01-13T10:58:46.361Z,15.57
2018-01-13T11:01:13.936Z,16.80
2018-01-13T11:03:41.467Z,17.15
2018-01-13T11:06:09.811Z,17.50
2018-01-13T11:08:37.338Z,16.70
2018-01-13T11:11:04.911Z,16.10
2018-01-13T11:13:32.501Z,16.35
2018-01-13T11:16:00.052Z,15.52
2018-01-13T11:18:27.600Z,14.60
2018-01-13T11:20:55.177Z,15.38
2018-01-13T11:23:22.713Z,15.23
2018-01-13T11:25:50.300Z,14.50
2018-01-13T11:28:17.837Z,15.43
2018-01-13T11:30:45.421Z,14.65
2018-01-13T11:33:12.969Z,14.73
2018-01-13T11:35:40.552Z,14.52
2018-01-13T11:38:08.856Z,17.02
2018-01-13T11:40:36.432Z,14.85
2018-01-13T11:43:03.967Z,14.85
2018-01-13T11:45:31.550Z,14.80
2018-01-13T11:47:59.082Z,13.60
2018-01-13T11:50:27.423Z,14.55
2018-01-13T11:52:54.963Z,13.60
2018-01-13T11:55:22.536Z,16.50
2018-01-13T11:57:50.076Z,15.80
2018-01-13T12:00:17.653Z,14.13
2018-01-13T12:02:45.193Z,18.80
2018-01-13T12:05:12.767Z,15.35
2018-01-13T12:07:40.300Z,15.80
2018-01-13T12:10:07.874Z,16.77
2018-01-13T12:12:35.412Z,16.58
2018-01-13T12:15:02.996Z,17.70
2018-01-13T12:17:30.535Z,15.23
2018-01-13T12:19:58.110Z,15.35
2018-01-13T12:22:25.649Z,14.32
2018-01-13T12:24:53.501Z,16.80
2018-01-13T12:27:21.794Z,17.15
2018-01-13T12:29:49.380Z,16.92
2018-01-13T12:32:16.921Z,14.80
2018-01-13T12:34:44.494Z,15.65
2018-01-13T12:37:12.028Z,16.40
2018-01-13T12:39:39.607Z,17.77
2018-01-13T12:42:07.151Z,14.90
2018-01-13T12:44:34.728Z,17.37
2018-01-13T12:47:02.269Z,18.25
2018-01-13T12:49:29.838Z,16.15
2018-01-13T12:51:57.375Z,17.70
2018-01-13T12:54:25.726Z,17.85
2018-01-13T12:56:53.279Z,16.65
2018-01-13T12:59:20.817Z,15.27
2018-01-13T13:01:48.393Z,16.60
2018-01-13T13:04:15.934Z,20.37
2018-01-13T13:06:43.507Z,16.83
2018-01-13T13:09:11.048Z,17.45
2018-01-13T13:11:38.632Z,15.00
2018-01-13T13:14:06.176Z,16.42
2018-01-13T13:16:33.759Z,16.20
2018-01-13T13:19:01.301Z,16.50
2018-01-13T13:21:28.882Z,16.98
2018-01-13T13:23:57.184Z,17.35
2018-01-13T13:26:25.524Z,16.20
2018-01-13T13:28:53.057Z,17.50
2018-01-13T13:31:20.630Z,16.65
2018-01-13T13:33:48.159Z,16.33
2018-01-13T13:36:15.731Z,15.25
2018-01-13T13:38:43.290Z,14.25
2018-01-13T13:41:10.866Z,14.02
2018-01-13T13:43:38.401Z,15.20
2018-01-13T13:46:05.977Z,15.32
2018-01-13T13:48:33.539Z,15.27
2018-01-13T13:51:01.127Z,16.27
2018-01-13T13:53:28.663Z,14.40
2018-01-13T13:55:56.246Z,16.12
2018-01-13T13:58:23.793Z,14.05
2018-01-13T14:00:51.366Z,15.73
2018-01-13T14:03:18.911Z,15.52
2018-01-13T14:05:46.500Z,14.68
2018-01-13T14:08:14.817Z,13.25
2018-01-13T14:10:42.400Z,14.40
2018-01-13T14:13:09.942Z,16.30
2018-01-13T14:15:37.530Z,17.05
2018-01-13T14:18:05.074Z,14.40
2018-01-13T14:20:32.648Z,14.33
2018-01-13T14:23:00.194Z,14.30
2018-01-13T14:25:27.779Z,16.33
2018-01-13T14:27:55.311Z,14.60
2018-01-13T14:30:22.891Z,13.40
2018-01-13T14:32:50.436Z,13.98
2018-01-13T14:35:18.024Z,15.35
2018-01-13T14:37:45.571Z,14.57
2018-01-13T14:40:13.148Z,15.90
2018-01-13T14:42:40.692Z,15.77
2018-01-13T14:45:08.272Z,14.70
2018-01-13T14:47:35.802Z,17.50
2018-01-13T14:50:03.391Z,16.03
2018-01-13T14:52:30.931Z,16.70
2018-01-13T14:54:58.517Z,16.40
2018-01-13T14:57:26.057Z,21.53
2018-01-13T14:59:53.635Z,15.87
2018-01-13T15:02:21.959Z,18.05
2018-01-13T15:04:49.621Z,17.33
2018-01-13T15:07:17.166Z,16.42
2018-01-13T15:09:44.755Z,20.10
2018-01-13T15:12:12.296Z,16.70
2018-01-13T15:14:39.879Z,16.50
2018-01-13T15:17:07.419Z,18.70
2018-01-13T15:19:35.004Z,17.23
2018-01-13T15:22:02.540Z,19.17
2018-01-13T15:24:30.122Z,17.67
2018-01-13T15:26:57.659Z,19.53
2018-01-13T15:29:25.191Z,17.83
2018-01-13T15:31:52.771Z,17.75
2018-01-13T15:34:20.311Z,19.90
2018-01-13T15:36:48.646Z,17.80
2018-01-13T15:39:16.238Z,19.33
2018-01-13T15:41:44.539Z,20.13
2018-01-13T15:44:12.081Z,19.37
2018-01-13T15:46:40.454Z,18.27
2018-01-13T15:49:08.763Z,20.20
2018-01-13T15:51:36.427Z,20.10
2018-01-13T15:54:04.016Z,18.25
2018-01-13T15:56:31.567Z,20.55
2018-01-13T15:58:59.140Z,19.27
2018-01-13T16:01:28.229Z,20.02
2018-01-13T16:03:55.773Z,21.77
2018-01-13T16:06:23.428Z,20.33
2018-01-13T16:08:50.966Z,21.50
2018-01-13T16:11:18.547Z,18.53
2018-01-13T16:13:46.136Z,22.23
2018-01-13T16:16:13.735Z,19.70
2018-01-13T16:18:41.282Z,19.87
2018-01-13T16:21:09.708Z,18.58
2018-01-13T16:23:37.248Z,23.45
2018-01-13T16:26:04.831Z,19.52
2018-01-13T16:28:32.416Z,18.95
2018-01-13T16:31:00.000Z,19.67
2018-01-13T16:33:28.307Z,19.25
2018-01-13T16:35:55.905Z,19.45
2018-01-13T16:38:23.447Z,20.40
2018-01-13T16:40:51.028Z,20.37
2018-01-13T16:43:18.578Z,18.60
2018-01-13T16:45:46.165Z,22.33
2018-01-13T16:48:13.754Z,19.85
2018-01-13T16:50:41.347Z,19.25
2018-01-13T16:53:08.920Z,18.30
2018-01-13T16:55:36.499Z,17.10
2018-01-13T16:58:04.040Z,17.73
2018-01-13T17:00:31.622Z,18.55
2018-01-13T17:02:59.927Z,19.23
2018-01-13T17:05:28.235Z,18.67
2018-01-13T17:07:55.816Z,18.52
2018-01-13T17:10:23.350Z,16.58
2018-01-13T17:12:50.937Z,17.77
2018-01-13T17:15:18.522Z,16.15
2018-01-13T17:17:46.108Z,16.48
2018-01-13T17:20:14.508Z,14.63
2018-01-13T17:22:42.832Z,16.27
2018-01-13T17:25:10.459Z,15.45
2018-01-13T17:27:38.115Z,15.13
2018-01-13T17:30:05.698Z,16.70
2018-01-13T17:32:33.300Z,14.48
2018-01-13T17:35:01.734Z,15.75
2018-01-13T17:37:29.312Z,15.27
2018-01-13T17:39:56.891Z,16.35
2018-01-13T17:42:25.199Z,14.77
2018-01-13T17:44:52.776Z,15.13
2018-01-13T17:47:20.319Z,14.98
2018-01-13T17:49:47.904Z,16.00
2018-01-13T17:52:15.444Z,17.17
2018-01-13T17:54:43.079Z,15.70
2018-01-13T17:57:11.386Z,17.52
2018-01-13T17:59:39.004Z,15.60
2018-01-13T18:02:06.538Z,19.02
2018-01-13T18:04:34.129Z,17.17
2018-01-13T18:07:02.437Z,16.83
2018-01-13T18:09:30.023Z,14.20
2018-01-13T18:11:57.565Z,14.18
2018-01-13T18:14:25.153Z,15.10
2018-01-13T18:16:52.697Z,14.18
2018-01-13T18:19:20.317Z,14.32
2018-01-13T18:21:48.634Z,12.90
2018-01-13T18:24:16.211Z,13.85
2018-01-13T18:26:43.757Z,15.43
2018-01-13T18:29:11.343Z,15.60
2018-01-13T18:31:38.881Z,13.27
2018-01-13T18:34:06.500Z,13.38
2018-01-13T18:36:34.856Z,15.13
2018-01-13T18:39:02.486Z,15.13
2018-01-13T18:41:30.071Z,15.18
2018-01-13T18:43:57.706Z,14.15
2018-01-13T18:46:25.298Z,13.15
2018-01-13T18:48:53.680Z,13.93
2018-01-13T18:51:21.271Z,13.75
2018-01-13T18:53:48.892Z,13.30
2018-01-13T18:56:16.484Z,13.48
2018-01-13T18:58:44.881Z,14.23
2018-01-13T19:01:12.468Z,9.77
2018-01-13T19:03:40.009Z,12.52
2018-01-13T19:06:07.635Z,13.43
2018-01-13T19:08:36.055Z,13.30
2018-01-13T19:11:03.597Z,12.68
2018-01-13T19:13:31.140Z,12.68
2018-01-13T19:15:59.527Z,11.52
2018-01-13T19:18:27.109Z,11.90
2018-01-13T19:20:54.733Z,11.25
2018-01-13T19:23:23.089Z,12.07
2018-01-13T19:25:50.722Z,11.82
2018-01-13T19:28:18.298Z,10.27
2018-01-13T19:30:45.917Z,9.30
2018-01-13T19:33:13.496Z,9.68
2018-01-13T19:35:41.114Z,7.85
2018-01-13T19:38:09.469Z,8.98
2018-01-13T19:40:37.053Z,8.98
2018-01-13T19:43:05.472Z,9.73
2018-01-13T19:45:33.091Z,9.77
2018-01-13T19:48:01.403Z,10.32
2018-01-13T19:50:28.986Z,9.90
2018-01-13T19:52:56.529Z,9.93
2018-01-13T19:55:24.159Z,9.63
2018-01-13T19:57:52.511Z,11.45
2018-01-13T20:00:20.152Z,13.62
2018-01-13T20:02:47.725Z,16.20
2018-01-13T20:05:15.362Z,10.60
2018-01-13T20:07:42.903Z,14.55
2018-01-13T20:10:10.536Z,12.90
2018-01-13T20:12:38.885Z,11.12
2018-01-13T20:15:06.502Z,11.18
2018-01-13T20:17:34.087Z,11.15
2018-01-13T20:20:01.930Z,10.25
2018-01-13T20:22:29.488Z,10.70
2018-01-13T20:24:57.174Z,10.73
2018-01-13T20:27:24.769Z,9.63
2018-01-13T20:29:53.156Z,10.82
2018-01-13T20:32:20.684Z,10.88
2018-01-13T20:34:48.311Z,10.48
2018-01-13T20:37:15.898Z,10.00
2018-01-13T20:39:43.556Z,11.00
2018-01-13T20:42:11.110Z,11.10
2018-01-13T20:44:38.696Z,11.02
2018-01-13T20:47:06.277Z,9.88
2018-01-13T20:49:33.912Z,10.55
2018-01-13T20:52:01.493Z,11.15
2018-01-13T20:54:29.071Z,11.02
2018-01-13T20:56:57.387Z,12.25
2018-01-13T20:59:25.019Z,11.90
2018-01-13T21:01:53.404Z,12.80
2018-01-13T21:04:20.998Z,11.85
2018-01-13T21:06:48.581Z,12.15
2018-01-13T21:09:16.170Z,11.88
2018-01-13T21:11:44.558Z,10.65
2018-01-13T21:14:12.912Z,11.48
2018-01-13T21:16:40.531Z,11.65
2018-01-13T21:19:08.118Z,10.73
2018-01-13T21:21:35.742Z,11.85
2018-01-13T21:24:03.322Z,11.70
2018-01-13T21:26:30.955Z,10.90
2018-01-13T21:28:58.542Z,10.25
2018-01-13T21:31:26.115Z,10.52
2018-01-13T21:33:53.690Z,10.55
2018-01-13T21:36:21.312Z,10.82
2018-01-13T21:38:48.848Z,9.77
2018-01-13T21:41:16.487Z,9.60
2018-01-13T21:43:44.098Z,10.48
2018-01-13T21:46:11.726Z,10.00
2018-01-13T21:48:40.030Z,11.55
2018-01-13T21:51:07.652Z,11.00
2018-01-13T21:53:36.005Z,12.63
2018-01-13T21:56:03.621Z,12.07
2018-01-13T21:58:31.193Z,12.30
2018-01-13T22:00:58.809Z,11.35
2018-01-13T22:03:27.109Z,12.57
2018-01-13T22:08:30.720Z,10.77
2018-01-13T22:10:59.068Z,11.25
2018-01-13T22:13:26.652Z,11.25
2018-01-13T22:15:55.047Z,10.40
2018-01-13T22:18:22.668Z,10.77
2018-01-13T22:20:50.310Z,10.93
2018-01-13T22:23:17.910Z,11.45
2018-01-13T22:25:46.300Z,11.00
2018-01-13T22:28:14.608Z,10.45
2018-01-13T22:30:42.184Z,12.25
2018-01-13T22:33:09.762Z,11.52
2018-01-13T22:35:37.339Z,12.75
2018-01-13T22:38:05.641Z,12.43
2018-01-13T22:40:33.263Z,13.70
2018-01-13T22:43:00.849Z,14.73
2018-01-13T22:45:29.234Z,11.98
2018-01-13T22:47:57.573Z,11.75
2018-01-13T22:50:25.196Z,10.93
2018-01-13T22:52:52.783Z,13.32
2018-01-13T22:55:20.321Z,11.82
2018-01-13T22:57:47.909Z,11.57
2018-01-13T23:00:15.528Z,10.43
2018-01-13T23:02:43.117Z,13.93
2018-01-13T23:05:10.707Z,13.18
2018-01-13T23:07:38.327Z,11.10
2018-01-13T23:10:05.962Z,11.73
2018-01-13T23:12:34.262Z,12.60
2018-01-13T23:15:01.838Z,12.37
2018-01-13T23:17:29.464Z,12.68
2018-01-13T23:19:56.994Z,13.32
2018-01-13T23:22:24.530Z,13.13
2018-01-13T23:24:52.141Z,14.55
2018-01-13T23:27:22.592Z,14.60
2018-01-13T23:29:50.209Z,13.77
2018-01-13T23:32:18.557Z,15.73
2018-01-13T23:34:46.129Z,13.00
2018-01-13T23:37:13.664Z,14.00
2018-01-13T23:39:41.267Z,13.50
2018-01-13T23:42:09.649Z,14.60
2018-01-13T23:44:37.951Z,13.25
2018-01-13T23:47:05.558Z,15.85
2018-01-13T23:49:33.145Z,14.55
2018-01-13T23:52:01.493Z,14.55
2018-01-13T23:54:29.077Z,14.82
2018-01-13T23:56:56.650Z,14.07
2018-01-13T23:59:24.983Z,13.23
